sensor_id;sensor_type;location;lat;lon;timestamp;P1;durP1;ratioP1;P2;durP2;ratioP2
14143;SDS011;7152;48.348;10.980;2022-12-11T00:01:58;26.17;;;15.83;;
14143;SDS011;7152;48.348;10.980;2022-12-11T00:04:24;24.90;;;16.23;;
14143;SDS011;7152;48.348;10.980;2022-12-11T00:06:49;24.33;;;15.33;;
14143;SDS011;7152;48.348;10.980;2022-12-11T00:09:16;23.30;;;15.37;;
14143;SDS011;7152;48.348;10.980;2022-12-11T00:11:42;20.93;;;13.93;;
14143;SDS011;7152;48.348;10.980;2022-12-11T00:14:08;20.10;;;14.30;;
14143;SDS011;7152;48.348;10.980;2022-12-11T00:16:34;20.73;;;13.23;;
14143;SDS011;7152;48.348;10.980;2022-12-11T00:18:59;23.00;;;16.27;;
14143;SDS011;7152;48.348;10.980;2022-12-11T00:21:25;21.20;;;15.17;;
14143;SDS011;7152;48.348;10.980;2022-12-11T00:23:51;22.97;;;15.50;;
14143;SDS011;7152;48.348;10.980;2022-12-11T00:26:16;20.10;;;14.07;;
14143;SDS011;7152;48.348;10.980;2022-12-11T00:28:42;20.07;;;13.27;;
14143;SDS011;7152;48.348;10.980;2022-12-11T00:31:11;19.77;;;13.73;;
14143;SDS011;7152;48.348;10.980;2022-12-11T00:33:41;23.43;;;15.20;;
14143;SDS011;7152;48.348;10.980;2022-12-11T00:36:12;21.63;;;14.77;;
14143;SDS011;7152;48.348;10.980;2022-12-11T00:38:39;20.60;;;13.83;;
14143;SDS011;7152;48.348;10.980;2022-12-11T00:41:05;19.30;;;13.90;;
14143;SDS011;7152;48.348;10.980;2022-12-11T00:43:31;17.40;;;12.67;;
14143;SDS011;7152;48.348;10.980;2022-12-11T00:45:56;21.60;;;13.70;;
14143;SDS011;7152;48.348;10.980;2022-12-11T00:48:22;22.53;;;14.87;;
14143;SDS011;7152;48.348;10.980;2022-12-11T00:50:48;21.03;;;13.73;;
14143;SDS011;7152;48.348;10.980;2022-12-11T00:53:13;21.23;;;14.60;;
14143;SDS011;7152;48.348;10.980;2022-12-11T00:55:39;20.97;;;14.50;;
14143;SDS011;7152;48.348;10.980;2022-12-11T00:58:06;21.10;;;14.70;;
14143;SDS011;7152;48.348;10.980;2022-12-11T01:00:33;22.23;;;14.73;;
14143;SDS011;7152;48.348;10.980;2022-12-11T01:02:59;19.77;;;13.73;;
14143;SDS011;7152;48.348;10.980;2022-12-11T01:05:25;19.43;;;14.27;;
14143;SDS011;7152;48.348;10.980;2022-12-11T01:07:51;21.30;;;14.97;;
14143;SDS011;7152;48.348;10.980;2022-12-11T01:10:17;20.70;;;13.77;;
14143;SDS011;7152;48.348;10.980;2022-12-11T01:12:56;21.57;;;14.50;;
14143;SDS011;7152;48.348;10.980;2022-12-11T01:15:23;21.53;;;13.97;;
14143;SDS011;7152;48.348;10.980;2022-12-11T01:17:52;22.97;;;16.20;;
14143;SDS011;7152;48.348;10.980;2022-12-11T01:20:18;20.27;;;14.60;;
14143;SDS011;7152;48.348;10.980;2022-12-11T01:22:45;22.30;;;13.80;;
14143;SDS011;7152;48.348;10.980;2022-12-11T01:25:11;20.30;;;14.00;;
14143;SDS011;7152;48.348;10.980;2022-12-11T01:27:37;19.73;;;13.43;;
14143;SDS011;7152;48.348;10.980;2022-12-11T01:30:04;20.47;;;14.13;;
14143;SDS011;7152;48.348;10.980;2022-12-11T01:32:32;19.67;;;13.57;;
14143;SDS011;7152;48.348;10.980;2022-12-11T01:34:58;19.83;;;13.37;;
14143;SDS011;7152;48.348;10.980;2022-12-11T01:37:24;20.80;;;14.03;;
14143;SDS011;7152;48.348;10.980;2022-12-11T01:39:50;21.23;;;13.87;;
14143;SDS011;7152;48.348;10.980;2022-12-11T01:42:16;20.00;;;14.77;;
14143;SDS011;7152;48.348;10.980;2022-12-11T01:47:09;22.37;;;15.13;;
14143;SDS011;7152;48.348;10.980;2022-12-11T01:49:35;20.90;;;14.37;;
14143;SDS011;7152;48.348;10.980;2022-12-11T01:52:05;22.93;;;14.50;;
14143;SDS011;7152;48.348;10.980;2022-12-11T01:54:34;24.60;;;14.87;;
14143;SDS011;7152;48.348;10.980;2022-12-11T01:57:03;20.07;;;13.03;;
14143;SDS011;7152;48.348;10.980;2022-12-11T01:59:30;22.83;;;15.00;;
14143;SDS011;7152;48.348;10.980;2022-12-11T02:02:09;24.17;;;15.17;;
14143;SDS011;7152;48.348;10.980;2022-12-11T02:04:41;23.10;;;14.50;;
14143;SDS011;7152;48.348;10.980;2022-12-11T02:07:09;23.13;;;15.33;;
14143;SDS011;7152;48.348;10.980;2022-12-11T02:09:36;20.87;;;14.27;;
14143;SDS011;7152;48.348;10.980;2022-12-11T02:14:58;20.90;;;14.27;;
14143;SDS011;7152;48.348;10.980;2022-12-11T02:17:40;21.47;;;13.87;;
14143;SDS011;7152;48.348;10.980;2022-12-11T02:20:22;20.80;;;13.80;;
14143;SDS011;7152;48.348;10.980;2022-12-11T02:31:50;21.27;;;13.23;;
14143;SDS011;7152;48.348;10.980;2022-12-11T02:34:19;20.47;;;13.67;;
14143;SDS011;7152;48.348;10.980;2022-12-11T02:36:53;19.87;;;13.47;;
14143;SDS011;7152;48.348;10.980;2022-12-11T02:39:24;21.20;;;14.57;;
14143;SDS011;7152;48.348;10.980;2022-12-11T02:41:51;23.73;;;13.87;;
14143;SDS011;7152;48.348;10.980;2022-12-11T02:44:20;20.60;;;13.93;;
14143;SDS011;7152;48.348;10.980;2022-12-11T02:46:49;21.27;;;14.13;;
14143;SDS011;7152;48.348;10.980;2022-12-11T02:49:16;21.87;;;14.37;;
14143;SDS011;7152;48.348;10.980;2022-12-11T02:51:44;23.70;;;15.13;;
14143;SDS011;7152;48.348;10.980;2022-12-11T02:54:15;21.87;;;14.93;;
14143;SDS011;7152;48.348;10.980;2022-12-11T02:56:49;22.17;;;15.37;;
14143;SDS011;7152;48.348;10.980;2022-12-11T02:59:19;23.90;;;15.33;;
14143;SDS011;7152;48.348;10.980;2022-12-11T03:01:50;20.27;;;13.70;;
14143;SDS011;7152;48.348;10.980;2022-12-11T03:04:16;22.43;;;14.77;;
14143;SDS011;7152;48.348;10.980;2022-12-11T03:06:42;21.97;;;14.50;;
14143;SDS011;7152;48.348;10.980;2022-12-11T03:09:12;22.63;;;14.70;;
14143;SDS011;7152;48.348;10.980;2022-12-11T03:11:38;23.77;;;15.17;;
14143;SDS011;7152;48.348;10.980;2022-12-11T03:14:03;23.23;;;14.40;;
14143;SDS011;7152;48.348;10.980;2022-12-11T03:16:34;25.43;;;15.27;;
14143;SDS011;7152;48.348;10.980;2022-12-11T03:24:52;19.03;;;13.37;;
14143;SDS011;7152;48.348;10.980;2022-12-11T03:27:35;22.40;;;14.13;;
14143;SDS011;7152;48.348;10.980;2022-12-11T03:30:09;21.97;;;14.70;;
14143;SDS011;7152;48.348;10.980;2022-12-11T03:32:43;21.77;;;15.53;;
14143;SDS011;7152;48.348;10.980;2022-12-11T03:37:50;22.23;;;14.43;;
14143;SDS011;7152;48.348;10.980;2022-12-11T03:40:18;22.23;;;15.40;;
14143;SDS011;7152;48.348;10.980;2022-12-11T03:42:47;21.67;;;14.10;;
14143;SDS011;7152;48.348;10.980;2022-12-11T03:45:15;21.70;;;14.73;;
14143;SDS011;7152;48.348;10.980;2022-12-11T03:47:43;23.30;;;16.17;;
14143;SDS011;7152;48.348;10.980;2022-12-11T03:50:11;21.57;;;14.77;;
14143;SDS011;7152;48.348;10.980;2022-12-11T03:52:40;19.67;;;13.37;;
14143;SDS011;7152;48.348;10.980;2022-12-11T03:55:08;22.57;;;13.67;;
14143;SDS011;7152;48.348;10.980;2022-12-11T03:57:36;20.53;;;14.07;;
14143;SDS011;7152;48.348;10.980;2022-12-11T04:00:06;24.10;;;15.93;;
14143;SDS011;7152;48.348;10.980;2022-12-11T04:02:36;20.53;;;14.00;;
14143;SDS011;7152;48.348;10.980;2022-12-11T04:05:02;20.70;;;13.43;;
14143;SDS011;7152;48.348;10.980;2022-12-11T04:07:28;20.60;;;14.47;;
14143;SDS011;7152;48.348;10.980;2022-12-11T04:09:55;20.80;;;14.37;;
14143;SDS011;7152;48.348;10.980;2022-12-11T04:12:21;20.40;;;14.03;;
14143;SDS011;7152;48.348;10.980;2022-12-11T04:14:47;22.33;;;14.77;;
14143;SDS011;7152;48.348;10.980;2022-12-11T04:17:28;22.70;;;14.53;;
14143;SDS011;7152;48.348;10.980;2022-12-11T04:20:14;21.73;;;14.50;;
14143;SDS011;7152;48.348;10.980;2022-12-11T04:22:59;20.20;;;13.13;;
14143;SDS011;7152;48.348;10.980;2022-12-11T04:25:45;22.87;;;13.67;;
14143;SDS011;7152;48.348;10.980;2022-12-11T04:28:11;21.07;;;13.80;;
14143;SDS011;7152;48.348;10.980;2022-12-11T04:30:37;21.73;;;13.50;;
14143;SDS011;7152;48.348;10.980;2022-12-11T04:33:02;20.23;;;13.27;;
14143;SDS011;7152;48.348;10.980;2022-12-11T04:35:28;21.20;;;14.20;;
14143;SDS011;7152;48.348;10.980;2022-12-11T04:37:54;20.20;;;13.83;;
14143;SDS011;7152;48.348;10.980;2022-12-11T04:40:20;20.07;;;13.03;;
14143;SDS011;7152;48.348;10.980;2022-12-11T04:42:45;21.73;;;13.57;;
14143;SDS011;7152;48.348;10.980;2022-12-11T04:45:12;18.93;;;12.90;;
14143;SDS011;7152;48.348;10.980;2022-12-11T04:47:38;22.13;;;13.60;;
14143;SDS011;7152;48.348;10.980;2022-12-11T04:50:05;19.53;;;13.53;;
14143;SDS011;7152;48.348;10.980;2022-12-11T04:52:33;18.70;;;13.07;;
14143;SDS011;7152;48.348;10.980;2022-12-11T04:54:58;19.80;;;13.23;;
14143;SDS011;7152;48.348;10.980;2022-12-11T04:57:24;20.73;;;13.60;;
14143;SDS011;7152;48.348;10.980;2022-12-11T04:59:50;18.53;;;12.63;;
14143;SDS011;7152;48.348;10.980;2022-12-11T05:02:15;18.70;;;12.17;;
14143;SDS011;7152;48.348;10.980;2022-12-11T05:04:41;18.07;;;12.20;;
14143;SDS011;7152;48.348;10.980;2022-12-11T05:07:07;16.20;;;12.03;;
14143;SDS011;7152;48.348;10.980;2022-12-11T05:09:35;17.50;;;12.53;;
14143;SDS011;7152;48.348;10.980;2022-12-11T05:12:01;19.77;;;14.43;;
14143;SDS011;7152;48.348;10.980;2022-12-11T05:14:27;17.63;;;12.30;;
14143;SDS011;7152;48.348;10.980;2022-12-11T05:16:56;16.97;;;12.57;;
14143;SDS011;7152;48.348;10.980;2022-12-11T05:19:22;22.67;;;14.93;;
14143;SDS011;7152;48.348;10.980;2022-12-11T05:21:48;20.40;;;13.10;;
14143;SDS011;7152;48.348;10.980;2022-12-11T05:24:14;19.47;;;13.43;;
14143;SDS011;7152;48.348;10.980;2022-12-11T05:26:39;19.97;;;13.00;;
14143;SDS011;7152;48.348;10.980;2022-12-11T05:29:05;18.87;;;12.63;;
14143;SDS011;7152;48.348;10.980;2022-12-11T05:31:31;18.37;;;13.00;;
14143;SDS011;7152;48.348;10.980;2022-12-11T05:33:56;20.27;;;13.53;;
14143;SDS011;7152;48.348;10.980;2022-12-11T05:36:23;19.60;;;12.90;;
14143;SDS011;7152;48.348;10.980;2022-12-11T05:38:51;20.87;;;13.80;;
14143;SDS011;7152;48.348;10.980;2022-12-11T05:41:18;20.97;;;14.17;;
14143;SDS011;7152;48.348;10.980;2022-12-11T05:43:46;19.97;;;13.23;;
14143;SDS011;7152;48.348;10.980;2022-12-11T05:46:17;20.50;;;13.70;;
14143;SDS011;7152;48.348;10.980;2022-12-11T05:48:48;21.03;;;13.77;;
14143;SDS011;7152;48.348;10.980;2022-12-11T05:51:16;20.77;;;14.43;;
14143;SDS011;7152;48.348;10.980;2022-12-11T05:53:43;20.27;;;12.80;;
14143;SDS011;7152;48.348;10.980;2022-12-11T05:56:11;19.87;;;13.13;;
14143;SDS011;7152;48.348;10.980;2022-12-11T05:58:39;21.63;;;14.30;;
14143;SDS011;7152;48.348;10.980;2022-12-11T06:01:08;23.73;;;14.10;;
14143;SDS011;7152;48.348;10.980;2022-12-11T06:03:34;20.70;;;14.07;;
14143;SDS011;7152;48.348;10.980;2022-12-11T06:06:01;21.03;;;13.73;;
14143;SDS011;7152;48.348;10.980;2022-12-11T06:08:27;21.50;;;14.17;;
14143;SDS011;7152;48.348;10.980;2022-12-11T06:10:53;23.07;;;14.43;;
14143;SDS011;7152;48.348;10.980;2022-12-11T06:13:19;20.33;;;13.60;;
14143;SDS011;7152;48.348;10.980;2022-12-11T06:15:44;20.80;;;14.97;;
14143;SDS011;7152;48.348;10.980;2022-12-11T06:18:10;22.97;;;14.33;;
14143;SDS011;7152;48.348;10.980;2022-12-11T06:20:36;22.17;;;14.80;;
14143;SDS011;7152;48.348;10.980;2022-12-11T06:23:01;22.07;;;14.83;;
14143;SDS011;7152;48.348;10.980;2022-12-11T06:25:28;21.77;;;15.57;;
14143;SDS011;7152;48.348;10.980;2022-12-11T06:27:53;20.87;;;14.47;;
14143;SDS011;7152;48.348;10.980;2022-12-11T06:30:19;20.40;;;13.97;;
14143;SDS011;7152;48.348;10.980;2022-12-11T06:32:45;20.07;;;13.33;;
14143;SDS011;7152;48.348;10.980;2022-12-11T06:35:11;20.60;;;14.60;;
14143;SDS011;7152;48.348;10.980;2022-12-11T06:37:37;19.30;;;14.10;;
14143;SDS011;7152;48.348;10.980;2022-12-11T06:40:04;24.27;;;15.80;;
14143;SDS011;7152;48.348;10.980;2022-12-11T06:42:31;22.43;;;14.93;;
14143;SDS011;7152;48.348;10.980;2022-12-11T06:44:56;24.43;;;16.00;;
14143;SDS011;7152;48.348;10.980;2022-12-11T06:47:24;22.63;;;14.57;;
14143;SDS011;7152;48.348;10.980;2022-12-11T06:49:51;25.37;;;14.87;;
14143;SDS011;7152;48.348;10.980;2022-12-11T06:52:16;25.20;;;14.53;;
14143;SDS011;7152;48.348;10.980;2022-12-11T06:54:42;22.47;;;13.80;;
14143;SDS011;7152;48.348;10.980;2022-12-11T06:57:08;26.47;;;16.30;;
14143;SDS011;7152;48.348;10.980;2022-12-11T06:59:34;24.40;;;16.13;;
14143;SDS011;7152;48.348;10.980;2022-12-11T07:01:59;23.63;;;16.50;;
14143;SDS011;7152;48.348;10.980;2022-12-11T07:04:25;25.93;;;16.03;;
14143;SDS011;7152;48.348;10.980;2022-12-11T07:06:52;22.80;;;14.67;;
14143;SDS011;7152;48.348;10.980;2022-12-11T07:09:18;26.83;;;16.60;;
14143;SDS011;7152;48.348;10.980;2022-12-11T07:11:43;27.30;;;15.93;;
14143;SDS011;7152;48.348;10.980;2022-12-11T07:14:09;29.43;;;16.87;;
14143;SDS011;7152;48.348;10.980;2022-12-11T07:16:35;24.67;;;15.93;;
14143;SDS011;7152;48.348;10.980;2022-12-11T07:19:00;28.50;;;15.80;;
14143;SDS011;7152;48.348;10.980;2022-12-11T07:21:26;24.30;;;15.70;;
14143;SDS011;7152;48.348;10.980;2022-12-11T07:23:52;24.03;;;15.37;;
14143;SDS011;7152;48.348;10.980;2022-12-11T07:26:18;25.87;;;14.70;;
14143;SDS011;7152;48.348;10.980;2022-12-11T07:28:46;27.67;;;15.83;;
14143;SDS011;7152;48.348;10.980;2022-12-11T07:31:13;22.90;;;13.87;;
14143;SDS011;7152;48.348;10.980;2022-12-11T07:33:41;28.67;;;15.90;;
14143;SDS011;7152;48.348;10.980;2022-12-11T07:36:08;25.83;;;15.10;;
14143;SDS011;7152;48.348;10.980;2022-12-11T07:38:35;26.60;;;15.50;;
14143;SDS011;7152;48.348;10.980;2022-12-11T07:41:02;23.27;;;14.83;;
14143;SDS011;7152;48.348;10.980;2022-12-11T07:43:29;26.47;;;15.37;;
14143;SDS011;7152;48.348;10.980;2022-12-11T07:45:59;28.37;;;16.60;;
14143;SDS011;7152;48.348;10.980;2022-12-11T07:48:29;26.83;;;15.40;;
14143;SDS011;7152;48.348;10.980;2022-12-11T07:50:55;25.53;;;15.57;;
14143;SDS011;7152;48.348;10.980;2022-12-11T07:53:30;23.43;;;14.47;;
14143;SDS011;7152;48.348;10.980;2022-12-11T07:55:57;26.37;;;15.80;;
14143;SDS011;7152;48.348;10.980;2022-12-11T07:58:23;33.17;;;18.73;;
14143;SDS011;7152;48.348;10.980;2022-12-11T08:00:49;20.67;;;13.73;;
14143;SDS011;7152;48.348;10.980;2022-12-11T08:03:15;21.60;;;14.17;;
14143;SDS011;7152;48.348;10.980;2022-12-11T08:05:46;20.17;;;13.17;;
14143;SDS011;7152;48.348;10.980;2022-12-11T08:08:13;22.47;;;14.40;;
14143;SDS011;7152;48.348;10.980;2022-12-11T08:10:39;23.93;;;14.87;;
14143;SDS011;7152;48.348;10.980;2022-12-11T08:13:05;21.37;;;13.13;;
14143;SDS011;7152;48.348;10.980;2022-12-11T08:15:31;22.80;;;14.87;;
14143;SDS011;7152;48.348;10.980;2022-12-11T08:17:57;22.93;;;14.23;;
14143;SDS011;7152;48.348;10.980;2022-12-11T08:20:23;22.97;;;14.43;;
14143;SDS011;7152;48.348;10.980;2022-12-11T08:22:49;22.20;;;14.47;;
14143;SDS011;7152;48.348;10.980;2022-12-11T08:25:14;22.40;;;14.47;;
14143;SDS011;7152;48.348;10.980;2022-12-11T08:27:40;26.27;;;14.37;;
14143;SDS011;7152;48.348;10.980;2022-12-11T08:30:06;20.13;;;13.50;;
14143;SDS011;7152;48.348;10.980;2022-12-11T08:32:33;20.67;;;13.73;;
14143;SDS011;7152;48.348;10.980;2022-12-11T08:34:59;22.93;;;14.23;;
14143;SDS011;7152;48.348;10.980;2022-12-11T08:37:24;20.50;;;13.87;;
14143;SDS011;7152;48.348;10.980;2022-12-11T08:39:50;20.47;;;14.70;;
14143;SDS011;7152;48.348;10.980;2022-12-11T08:42:16;20.67;;;13.90;;
14143;SDS011;7152;48.348;10.980;2022-12-11T08:44:41;22.50;;;13.43;;
14143;SDS011;7152;48.348;10.980;2022-12-11T08:47:07;21.90;;;13.50;;
14143;SDS011;7152;48.348;10.980;2022-12-11T08:49:35;22.23;;;14.00;;
14143;SDS011;7152;48.348;10.980;2022-12-11T08:52:02;19.53;;;12.40;;
14143;SDS011;7152;48.348;10.980;2022-12-11T08:54:29;19.77;;;12.60;;
14143;SDS011;7152;48.348;10.980;2022-12-11T08:56:55;18.73;;;12.37;;
14143;SDS011;7152;48.348;10.980;2022-12-11T08:59:21;21.60;;;14.10;;
14143;SDS011;7152;48.348;10.980;2022-12-11T09:01:47;19.20;;;12.97;;
14143;SDS011;7152;48.348;10.980;2022-12-11T09:04:13;18.53;;;12.27;;
14143;SDS011;7152;48.348;10.980;2022-12-11T09:06:38;17.73;;;12.70;;
14143;SDS011;7152;48.348;10.980;2022-12-11T09:09:04;19.20;;;13.33;;
14143;SDS011;7152;48.348;10.980;2022-12-11T09:11:32;18.60;;;12.60;;
14143;SDS011;7152;48.348;10.980;2022-12-11T09:13:59;16.63;;;11.97;;
14143;SDS011;7152;48.348;10.980;2022-12-11T09:16:26;17.47;;;12.13;;
14143;SDS011;7152;48.348;10.980;2022-12-11T09:18:53;15.37;;;11.00;;
14143;SDS011;7152;48.348;10.980;2022-12-11T09:21:21;14.37;;;11.30;;
14143;SDS011;7152;48.348;10.980;2022-12-11T09:23:52;15.93;;;11.60;;
14143;SDS011;7152;48.348;10.980;2022-12-11T09:26:19;15.93;;;10.70;;
14143;SDS011;7152;48.348;10.980;2022-12-11T09:28:45;14.67;;;10.13;;
14143;SDS011;7152;48.348;10.980;2022-12-11T09:31:12;16.73;;;10.17;;
14143;SDS011;7152;48.348;10.980;2022-12-11T09:33:40;15.00;;;11.00;;
14143;SDS011;7152;48.348;10.980;2022-12-11T09:36:06;17.97;;;11.50;;
14143;SDS011;7152;48.348;10.980;2022-12-11T09:38:32;13.90;;;10.07;;
14143;SDS011;7152;48.348;10.980;2022-12-11T09:40:58;11.93;;;9.73;;
14143;SDS011;7152;48.348;10.980;2022-12-11T09:46:13;11.93;;;9.10;;
14143;SDS011;7152;48.348;10.980;2022-12-11T09:48:40;14.03;;;9.80;;
14143;SDS011;7152;48.348;10.980;2022-12-11T09:51:29;16.00;;;10.23;;
14143;SDS011;7152;48.348;10.980;2022-12-11T09:54:00;13.80;;;9.43;;
14143;SDS011;7152;48.348;10.980;2022-12-11T10:04:50;11.80;;;8.77;;
14143;SDS011;7152;48.348;10.980;2022-12-11T10:07:37;12.47;;;9.80;;
14143;SDS011;7152;48.348;10.980;2022-12-11T10:10:41;13.77;;;9.47;;
14143;SDS011;7152;48.348;10.980;2022-12-11T10:19:04;16.47;;;10.23;;
14143;SDS011;7152;48.348;10.980;2022-12-11T10:21:37;13.80;;;10.17;;
14143;SDS011;7152;48.348;10.980;2022-12-11T10:24:09;14.13;;;10.93;;
14143;SDS011;7152;48.348;10.980;2022-12-11T10:26:57;13.27;;;9.33;;
14143;SDS011;7152;48.348;10.980;2022-12-11T10:29:33;14.00;;;10.17;;
14143;SDS011;7152;48.348;10.980;2022-12-11T10:31:58;14.13;;;9.70;;
14143;SDS011;7152;48.348;10.980;2022-12-11T10:34:34;14.47;;;10.00;;
14143;SDS011;7152;48.348;10.980;2022-12-11T10:37:03;15.80;;;11.83;;
14143;SDS011;7152;48.348;10.980;2022-12-11T10:39:29;13.70;;;9.70;;
14143;SDS011;7152;48.348;10.980;2022-12-11T10:41:55;17.40;;;11.30;;
14143;SDS011;7152;48.348;10.980;2022-12-11T10:44:22;15.37;;;9.90;;
14143;SDS011;7152;48.348;10.980;2022-12-11T10:49:26;15.63;;;10.73;;
14143;SDS011;7152;48.348;10.980;2022-12-11T10:51:54;11.90;;;9.70;;
14143;SDS011;7152;48.348;10.980;2022-12-11T10:57:33;10.83;;;8.33;;
14143;SDS011;7152;48.348;10.980;2022-12-11T11:00:01;10.67;;;7.37;;
14143;SDS011;7152;48.348;10.980;2022-12-11T11:02:36;9.47;;;7.70;;
14143;SDS011;7152;48.348;10.980;2022-12-11T11:05:25;10.20;;;8.50;;
14143;SDS011;7152;48.348;10.980;2022-12-11T11:08:12;9.00;;;7.17;;
14143;SDS011;7152;48.348;10.980;2022-12-11T11:10:52;10.50;;;8.30;;
14143;SDS011;7152;48.348;10.980;2022-12-11T11:13:24;9.87;;;7.83;;
14143;SDS011;7152;48.348;10.980;2022-12-11T11:16:10;9.73;;;7.03;;
14143;SDS011;7152;48.348;10.980;2022-12-11T11:18:39;7.43;;;6.60;;
14143;SDS011;7152;48.348;10.980;2022-12-11T11:21:14;7.67;;;6.50;;
14143;SDS011;7152;48.348;10.980;2022-12-11T11:23:42;13.73;;;9.47;;
14143;SDS011;7152;48.348;10.980;2022-12-11T11:26:08;8.20;;;7.30;;
14143;SDS011;7152;48.348;10.980;2022-12-11T11:28:36;7.67;;;6.60;;
14143;SDS011;7152;48.348;10.980;2022-12-11T11:31:06;9.43;;;7.40;;
14143;SDS011;7152;48.348;10.980;2022-12-11T11:33:35;8.87;;;7.27;;
14143;SDS011;7152;48.348;10.980;2022-12-11T11:36:19;8.80;;;7.40;;
14143;SDS011;7152;48.348;10.980;2022-12-11T11:38:55;9.10;;;7.60;;
14143;SDS011;7152;48.348;10.980;2022-12-11T11:41:36;9.53;;;8.17;;
14143;SDS011;7152;48.348;10.980;2022-12-11T11:44:27;9.17;;;7.13;;
14143;SDS011;7152;48.348;10.980;2022-12-11T11:47:03;10.00;;;8.10;;
14143;SDS011;7152;48.348;10.980;2022-12-11T11:49:45;8.73;;;7.53;;
14143;SDS011;7152;48.348;10.980;2022-12-11T11:55:14;8.47;;;7.17;;
14143;SDS011;7152;48.348;10.980;2022-12-11T12:00:31;9.53;;;7.13;;
14143;SDS011;7152;48.348;10.980;2022-12-11T12:03:00;11.73;;;7.83;;
14143;SDS011;7152;48.348;10.980;2022-12-11T12:05:53;9.27;;;7.83;;
14143;SDS011;7152;48.348;10.980;2022-12-11T12:11:21;9.77;;;7.60;;
14143;SDS011;7152;48.348;10.980;2022-12-11T12:14:09;10.17;;;8.00;;
14143;SDS011;7152;48.348;10.980;2022-12-11T12:19:49;10.47;;;8.53;;
14143;SDS011;7152;48.348;10.980;2022-12-11T12:47:29;8.87;;;6.93;;
14143;SDS011;7152;48.348;10.980;2022-12-11T12:49:58;10.03;;;7.67;;
14143;SDS011;7152;48.348;10.980;2022-12-11T12:52:28;10.77;;;8.17;;
14143;SDS011;7152;48.348;10.980;2022-12-11T12:55:22;9.07;;;7.03;;
14143;SDS011;7152;48.348;10.980;2022-12-11T12:58:06;9.80;;;7.60;;
14143;SDS011;7152;48.348;10.980;2022-12-11T13:00:48;8.23;;;7.03;;
14143;SDS011;7152;48.348;10.980;2022-12-11T13:03:15;9.33;;;7.50;;
14143;SDS011;7152;48.348;10.980;2022-12-11T13:05:42;10.77;;;9.10;;
14143;SDS011;7152;48.348;10.980;2022-12-11T13:08:23;12.57;;;8.87;;
14143;SDS011;7152;48.348;10.980;2022-12-11T13:10:58;11.87;;;8.33;;
14143;SDS011;7152;48.348;10.980;2022-12-11T13:13:31;9.10;;;7.93;;
14143;SDS011;7152;48.348;10.980;2022-12-11T13:18:40;10.23;;;8.47;;
14143;SDS011;7152;48.348;10.980;2022-12-11T13:24:13;10.40;;;7.97;;
14143;SDS011;7152;48.348;10.980;2022-12-11T13:26:39;9.97;;;7.60;;
14143;SDS011;7152;48.348;10.980;2022-12-11T13:29:26;9.27;;;7.73;;
14143;SDS011;7152;48.348;10.980;2022-12-11T13:32:11;10.83;;;7.97;;
14143;SDS011;7152;48.348;10.980;2022-12-11T13:34:57;10.73;;;8.43;;
14143;SDS011;7152;48.348;10.980;2022-12-11T13:40:07;10.87;;;8.37;;
14143;SDS011;7152;48.348;10.980;2022-12-11T13:42:48;10.77;;;8.60;;
14143;SDS011;7152;48.348;10.980;2022-12-11T13:45:30;10.50;;;8.10;;
14143;SDS011;7152;48.348;10.980;2022-12-11T13:48:14;10.63;;;8.50;;
14143;SDS011;7152;48.348;10.980;2022-12-11T13:50:50;11.10;;;8.40;;
14143;SDS011;7152;48.348;10.980;2022-12-11T13:53:17;10.73;;;8.60;;
14143;SDS011;7152;48.348;10.980;2022-12-11T13:55:45;9.93;;;7.93;;
14143;SDS011;7152;48.348;10.980;2022-12-11T13:58:19;11.00;;;8.37;;
14143;SDS011;7152;48.348;10.980;2022-12-11T14:01:08;10.77;;;8.10;;
14143;SDS011;7152;48.348;10.980;2022-12-11T14:03:32;11.70;;;8.30;;
14143;SDS011;7152;48.348;10.980;2022-12-11T14:05:59;12.30;;;8.80;;
14143;SDS011;7152;48.348;10.980;2022-12-11T14:08:28;9.80;;;8.13;;
14143;SDS011;7152;48.348;10.980;2022-12-11T14:10:59;11.37;;;7.80;;
14143;SDS011;7152;48.348;10.980;2022-12-11T14:13:35;10.20;;;7.67;;
14143;SDS011;7152;48.348;10.980;2022-12-11T14:16:04;8.63;;;7.50;;
14143;SDS011;7152;48.348;10.980;2022-12-11T14:18:32;11.37;;;8.57;;
14143;SDS011;7152;48.348;10.980;2022-12-11T14:21:00;9.73;;;7.53;;
14143;SDS011;7152;48.348;10.980;2022-12-11T14:23:30;10.43;;;7.73;;
14143;SDS011;7152;48.348;10.980;2022-12-11T14:26:01;9.47;;;8.20;;
14143;SDS011;7152;48.348;10.980;2022-12-11T14:28:47;10.50;;;7.23;;
14143;SDS011;7152;48.348;10.980;2022-12-11T14:31:18;8.83;;;7.53;;
14143;SDS011;7152;48.348;10.980;2022-12-11T14:34:21;10.13;;;7.83;;
14143;SDS011;7152;48.348;10.980;2022-12-11T14:37:10;13.63;;;7.60;;
14143;SDS011;7152;48.348;10.980;2022-12-11T14:39:42;10.20;;;7.50;;
14143;SDS011;7152;48.348;10.980;2022-12-11T14:42:16;9.10;;;7.20;;
14143;SDS011;7152;48.348;10.980;2022-12-11T14:45:02;10.27;;;7.77;;
14143;SDS011;7152;48.348;10.980;2022-12-11T14:47:33;10.63;;;7.57;;
14143;SDS011;7152;48.348;10.980;2022-12-11T14:50:20;9.93;;;7.23;;
14143;SDS011;7152;48.348;10.980;2022-12-11T14:52:50;10.57;;;8.10;;
14143;SDS011;7152;48.348;10.980;2022-12-11T14:55:40;9.30;;;7.87;;
14143;SDS011;7152;48.348;10.980;2022-12-11T14:58:14;10.07;;;8.07;;
14143;SDS011;7152;48.348;10.980;2022-12-11T15:00:56;15.13;;;9.00;;
14143;SDS011;7152;48.348;10.980;2022-12-11T15:03:33;13.27;;;8.90;;
14143;SDS011;7152;48.348;10.980;2022-12-11T15:06:02;10.10;;;7.67;;
14143;SDS011;7152;48.348;10.980;2022-12-11T15:08:46;11.47;;;8.17;;
14143;SDS011;7152;48.348;10.980;2022-12-11T15:11:13;12.80;;;8.80;;
14143;SDS011;7152;48.348;10.980;2022-12-11T15:14:00;13.20;;;9.67;;
14143;SDS011;7152;48.348;10.980;2022-12-11T15:16:30;14.13;;;10.27;;
14143;SDS011;7152;48.348;10.980;2022-12-11T15:18:58;10.77;;;8.67;;
14143;SDS011;7152;48.348;10.980;2022-12-11T15:21:27;13.70;;;9.40;;
14143;SDS011;7152;48.348;10.980;2022-12-11T15:23:56;12.07;;;9.03;;
14143;SDS011;7152;48.348;10.980;2022-12-11T15:31:57;14.43;;;10.00;;
14143;SDS011;7152;48.348;10.980;2022-12-11T15:34:24;13.03;;;10.10;;
14143;SDS011;7152;48.348;10.980;2022-12-11T15:36:50;16.50;;;10.43;;
14143;SDS011;7152;48.348;10.980;2022-12-11T15:39:16;12.47;;;9.27;;
14143;SDS011;7152;48.348;10.980;2022-12-11T15:41:41;10.53;;;9.37;;
14143;SDS011;7152;48.348;10.980;2022-12-11T15:44:08;14.98;;;11.85;;
14143;SDS011;7152;48.348;10.980;2022-12-11T15:46:42;14.37;;;10.30;;
14143;SDS011;7152;48.348;10.980;2022-12-11T15:49:09;14.17;;;9.97;;
14143;SDS011;7152;48.348;10.980;2022-12-11T15:51:36;14.87;;;10.70;;
14143;SDS011;7152;48.348;10.980;2022-12-11T15:54:02;12.73;;;9.43;;
14143;SDS011;7152;48.348;10.980;2022-12-11T15:56:28;14.77;;;9.83;;
14143;SDS011;7152;48.348;10.980;2022-12-11T15:58:54;14.80;;;10.43;;
14143;SDS011;7152;48.348;10.980;2022-12-11T16:01:24;13.73;;;10.17;;
14143;SDS011;7152;48.348;10.980;2022-12-11T16:03:50;12.43;;;9.60;;
14143;SDS011;7152;48.348;10.980;2022-12-11T16:06:15;11.93;;;8.97;;
14143;SDS011;7152;48.348;10.980;2022-12-11T16:08:41;12.63;;;9.17;;
14143;SDS011;7152;48.348;10.980;2022-12-11T16:11:08;13.50;;;9.10;;
14143;SDS011;7152;48.348;10.980;2022-12-11T16:13:37;12.70;;;9.40;;
14143;SDS011;7152;48.348;10.980;2022-12-11T16:16:03;12.57;;;8.77;;
14143;SDS011;7152;48.348;10.980;2022-12-11T16:18:29;13.30;;;9.57;;